Sierraville, CA

9:17 PM PDT on October 24, 2014 (GMT -0700)
RAWS RICE CANYON CA US | Change Station
CLOSE
Current Station
Personal Weather Station
Location: Sierraville, CA
Elevation: 6936 ft
Nearby Weather Stations
Active Advisory: Wind Advisory

Elev 6936 ft 39.53 °N, 120.33 °W | Updated 363 days ago

Partly Cloudy
Partly Cloudy
46 °F
Feels Like 46 °F
N
14
Wind Variable Wind from SSW
Gusts 22 mph

Today
High -- | Low -- °F
--% Chance of Precip.
Yesterday
High -- | Low -- °F
Precip. -- in
7:20 AM 6:09 PM
New Moon, 2% visible
Pressure 30.07 in
Visibility 10.0 miles
Clouds Clear
Dew Point 23 °F
Humidity 41%
Rainfall 0.00 in
Snow Depth 0 in , 0 in
UV 0 out of 12
Pollen 2.80 out of 12
Air Quality Not available.
Flu Activity Sporadic
METAR KTRK 250355Z AUTO 22012G23KT 10SM CLR 13/M04 A3007 RMK AO2

More Conditions Fewer Conditions

Pressure 30.07 in
Visibility 10.0 miles
Clouds Clear
Dew Point 23 °F
Humidity 41%
Rainfall 0.00 in
Snow Depth 0 in , 0 in
UV 0 out of 12
Pollen 2.80 out of 12
Air Quality Not available.
Flu Activity Sporadic
METAR KTRK 250355Z AUTO 22012G23KT 10SM CLR 13/M04 A3007 RMK AO2

More Conditions Fewer Conditions

10-Day Weather Forecast

Almanac

Astronomy

Oct. 24, 2014 Rise Set
Actual Time 7:20 AM PDT 6:09 PM PDT
Civil Twilight 6:53 AM PDT 6:36 PM PDT
Nautical Twilight 6:21 AM PDT 7:08 PM PDT
Astronomical Twilight 5:50 AM PDT 7:39 PM PDT
Moon 8:04 AM PDT (10/24) 6:53 PM PDT (10/24)
Length of Visible Light 11h 43m
Length of Day
10h 48m
Tomorrow will be 2m 23s shorter.
New Moon, 2% of the Moon is Illuminated
Oct 25
New Moon
Oct 30
First Quarter
Nov 6
Full
Nov 14
Last Quarter
Nov 22
New

Today's Extremes

State Highs State Lows

Community

WunderPhotos

Upload Photos

1,764,779 photos uploaded!

Nearby

Snow Depth

Station Depth Elevation
Independence Camp 0 in 7000 ft
CSS Lab 0 in 6900 ft
Rubicon #2 0 in 7500 ft
Fallen Leaf 0 in 6300 ft
Echo Peak 0 in 7800 ft

Earthquake Activity

City Distance Mag. Time & Date
Gerlach-Empire, Nevada 62 miles 2.5 7:16 AM PDT
2014-10-23
Minimum magnitude displayed is 2.5.

Coastal Water Temperatures

Place Temperature
No Stations Reporting

Nearby Weather Stations